Terminal Aerodrome Forecast
Issued by NWS

Home | Current Version | Previous Version | Text Only | Print | Product List | Glossary On
Versions: 1 2 3 4 5 6 7 8 9 10 11 12 13 14 15 16 17 18 19 20 21 22 23 24 25
000
FTUS44 KCRP 040500
TAFLRD
TAF
KLRD 040520Z 0406/0506 06008KT 2SM BR OVC004
      TEMPO 0406/0409 1/2SM -DZ FG VV001
     FM040900 VRB04KT 1SM BR OVC003
     FM041500 16005KT 5SM BR BKN009 OVC018
     FM041800 18006KT P6SM SCT025 SCT150
     FM050200 02018G28KT 5SM -SHRA OVC008=

USA.gov is the U.S. government's official web portal to all federal, state and local government web resources and services.